<?xml version="1.0" encoding="UTF-8" standalone="no" ?>
<gpx xmlns="http://www.topografix.com/GPX/1/1" xmlns:xsi="http://www.w3.org/2001/XMLSchema-instance" xsi:schemaLocation="http://www.topografix.com/GPX/1/1 http://www.topografix.com/GPX/1/1/gpx.xsd" version="1.1" creator="VisuGPX - https://www.visugpx.com">
  <metadata>
    <name>Glaris-Engelberg</name>
  </metadata>
  <trk>
    <name><![CDATA[Glaris-Engelberg_4]]></name>
    <extensions>
      <line xmlns="http://www.topografix.com/GPX/gpx_style/0/2">
        <color>00FFFF</color>
        <width>4</width>
      </line>
    </extensions>
    <trkseg>
      <trkpt lat="47.01965" lon="8.6568">
        <ele>530</ele>
        <time>2021-08-05T08:24:31.368Z</time>
      </trkpt>
      <trkpt lat="47.01965" lon="8.6568">
        <ele>530</ele>
        <time>2021-08-05T08:24:31.368Z</time>
      </trkpt>
      <trkpt lat="47.01964" lon="8.65679">
        <ele>529</ele>
        <time>2021-08-05T08:24:32.369Z</time>
      </trkpt>
      <trkpt lat="47.01963" lon="8.65677">
        <ele>529</ele>
        <time>2021-08-05T08:24:33.369Z</time>
      </trkpt>
      <trkpt lat="47.01962" lon="8.65676">
        <ele>528</ele>
        <time>2021-08-05T08:24:34.369Z</time>
      </trkpt>
      <trkpt lat="47.01961" lon="8.65674">
        <ele>528</ele>
        <time>2021-08-05T08:24:35.369Z</time>
      </trkpt>
      <trkpt lat="47.0196" lon="8.65672">
        <ele>527</ele>
        <time>2021-08-05T08:24:36.369Z</time>
      </trkpt>
      <trkpt lat="47.0196" lon="8.65671">
        <ele>526</ele>
        <time>2021-08-05T08:24:37.369Z</time>
      </trkpt>
      <trkpt lat="47.0196" lon="8.65669">
        <ele>526</ele>
        <time>2021-08-05T08:24:38.368Z</time>
      </trkpt>
      <trkpt lat="47.01959" lon="8.65667">
        <ele>525</ele>
        <time>2021-08-05T08:24:39.369Z</time>
      </trkpt>
      <trkpt lat="47.01959" lon="8.65666">
        <ele>524</ele>
        <time>2021-08-05T08:24:40.369Z</time>
      </trkpt>
      <trkpt lat="47.01959" lon="8.65665">
        <ele>524</ele>
        <time>2021-08-05T08:24:41.368Z</time>
      </trkpt>
      <trkpt lat="47.0196" lon="8.65665">
        <ele>523</ele>
        <time>2021-08-05T08:24:42.368Z</time>
      </trkpt>
      <trkpt lat="47.0196" lon="8.65664">
        <ele>523</ele>
        <time>2021-08-05T08:24:43.368Z</time>
      </trkpt>
      <trkpt lat="47.0196" lon="8.65663">
        <ele>523</ele>
        <time>2021-08-05T08:24:44.368Z</time>
      </trkpt>
      <trkpt lat="47.01959" lon="8.65662">
        <ele>522</ele>
        <time>2021-08-05T08:24:45.369Z</time>
      </trkpt>
      <trkpt lat="47.01959" lon="8.65661">
        <ele>522</ele>
        <time>2021-08-05T08:24:46.369Z</time>
      </trkpt>
      <trkpt lat="47.01959" lon="8.6566">
        <ele>522</ele>
        <time>2021-08-05T08:24:47.369Z</time>
      </trkpt>
      <trkpt lat="47.01958" lon="8.65658">
        <ele>522</ele>
        <time>2021-08-05T08:24:48.369Z</time>
      </trkpt>
      <trkpt lat="47.01957" lon="8.65657">
        <ele>521</ele>
        <time>2021-08-05T08:24:49.369Z</time>
      </trkpt>
      <trkpt lat="47.01957" lon="8.65656">
        <ele>521</ele>
        <time>2021-08-05T08:24:50.369Z</time>
      </trkpt>
      <trkpt lat="47.01956" lon="8.65655">
        <ele>521</ele>
        <time>2021-08-05T08:24:51.368Z</time>
      </trkpt>
      <trkpt lat="47.01956" lon="8.65655">
        <ele>521</ele>
        <time>2021-08-05T08:24:52.369Z</time>
      </trkpt>
      <trkpt lat="47.01955" lon="8.65654">
        <ele>521</ele>
        <time>2021-08-05T08:24:53.369Z</time>
      </trkpt>
      <trkpt lat="47.01954" lon="8.65654">
        <ele>521</ele>
        <time>2021-08-05T08:24:54.369Z</time>
      </trkpt>
      <trkpt lat="47.01954" lon="8.65653">
        <ele>521</ele>
        <time>2021-08-05T08:24:55.368Z</time>
      </trkpt>
      <trkpt lat="47.01953" lon="8.65651">
        <ele>520</ele>
        <time>2021-08-05T08:24:56.368Z</time>
      </trkpt>
      <trkpt lat="47.01952" lon="8.65649">
        <ele>520</ele>
        <time>2021-08-05T08:24:57.368Z</time>
      </trkpt>
      <trkpt lat="47.01951" lon="8.65648">
        <ele>520</ele>
        <time>2021-08-05T08:24:58.368Z</time>
      </trkpt>
      <trkpt lat="47.01951" lon="8.65647">
        <ele>520</ele>
        <time>2021-08-05T08:24:59.368Z</time>
      </trkpt>
      <trkpt lat="47.01951" lon="8.65646">
        <ele>520</ele>
        <time>2021-08-05T08:25:00.368Z</time>
      </trkpt>
      <trkpt lat="47.0195" lon="8.65644">
        <ele>520</ele>
        <time>2021-08-05T08:25:01.368Z</time>
      </trkpt>
      <trkpt lat="47.01949" lon="8.65642">
        <ele>520</ele>
        <time>2021-08-05T08:25:02.368Z</time>
      </trkpt>
      <trkpt lat="47.01949" lon="8.65639">
        <ele>520</ele>
        <time>2021-08-05T08:25:03.368Z</time>
      </trkpt>
      <trkpt lat="47.01949" lon="8.65638">
        <ele>520</ele>
        <time>2021-08-05T08:25:04.368Z</time>
      </trkpt>
      <trkpt lat="47.01948" lon="8.65636">
        <ele>520</ele>
        <time>2021-08-05T08:25:05.368Z</time>
      </trkpt>
      <trkpt lat="47.01947" lon="8.65634">
        <ele>520</ele>
        <time>2021-08-05T08:25:06.368Z</time>
      </trkpt>
      <trkpt lat="47.01946" lon="8.65632">
        <ele>520</ele>
        <time>2021-08-05T08:25:07.369Z</time>
      </trkpt>
      <trkpt lat="47.01946" lon="8.6563">
        <ele>520</ele>
        <time>2021-08-05T08:25:08.368Z</time>
      </trkpt>
      <trkpt lat="47.01946" lon="8.65629">
        <ele>520</ele>
        <time>2021-08-05T08:25:09.369Z</time>
      </trkpt>
      <trkpt lat="47.01946" lon="8.65627">
        <ele>520</ele>
        <time>2021-08-05T08:25:10.368Z</time>
      </trkpt>
      <trkpt lat="47.01945" lon="8.65625">
        <ele>520</ele>
        <time>2021-08-05T08:25:11.369Z</time>
      </trkpt>
      <trkpt lat="47.01945" lon="8.65624">
        <ele>521</ele>
        <time>2021-08-05T08:25:12.369Z</time>
      </trkpt>
      <trkpt lat="47.01945" lon="8.65622">
        <ele>521</ele>
        <time>2021-08-05T08:25:13.369Z</time>
      </trkpt>
      <trkpt lat="47.01944" lon="8.6562">
        <ele>521</ele>
        <time>2021-08-05T08:25:14.369Z</time>
      </trkpt>
      <trkpt lat="47.01943" lon="8.65618">
        <ele>521</ele>
        <time>2021-08-05T08:25:15.369Z</time>
      </trkpt>
      <trkpt lat="47.01943" lon="8.65616">
        <ele>521</ele>
        <time>2021-08-05T08:25:16.369Z</time>
      </trkpt>
      <trkpt lat="47.01943" lon="8.65615">
        <ele>521</ele>
        <time>2021-08-05T08:25:17.369Z</time>
      </trkpt>
      <trkpt lat="47.01942" lon="8.65613">
        <ele>522</ele>
        <time>2021-08-05T08:25:18.369Z</time>
      </trkpt>
      <trkpt lat="47.01942" lon="8.6561">
        <ele>522</ele>
        <time>2021-08-05T08:25:19.368Z</time>
      </trkpt>
      <trkpt lat="47.01941" lon="8.65608">
        <ele>522</ele>
        <time>2021-08-05T08:25:20.369Z</time>
      </trkpt>
      <trkpt lat="47.01941" lon="8.65606">
        <ele>522</ele>
        <time>2021-08-05T08:25:21.368Z</time>
      </trkpt>
      <trkpt lat="47.01941" lon="8.65605">
        <ele>522</ele>
        <time>2021-08-05T08:25:22.368Z</time>
      </trkpt>
      <trkpt lat="47.0194" lon="8.65602">
        <ele>523</ele>
        <time>2021-08-05T08:25:23.369Z</time>
      </trkpt>
      <trkpt lat="47.01939" lon="8.656">
        <ele>523</ele>
        <time>2021-08-05T08:25:24.368Z</time>
      </trkpt>
      <trkpt lat="47.01938" lon="8.65598">
        <ele>523</ele>
        <time>2021-08-05T08:25:25.368Z</time>
      </trkpt>
      <trkpt lat="47.01937" lon="8.65596">
        <ele>523</ele>
        <time>2021-08-05T08:25:26.368Z</time>
      </trkpt>
      <trkpt lat="47.01935" lon="8.65593">
        <ele>524</ele>
        <time>2021-08-05T08:25:27.368Z</time>
      </trkpt>
      <trkpt lat="47.01932" lon="8.65589">
        <ele>524</ele>
        <time>2021-08-05T08:25:28.369Z</time>
      </trkpt>
      <trkpt lat="47.01931" lon="8.65585">
        <ele>524</ele>
        <time>2021-08-05T08:25:29.369Z</time>
      </trkpt>
      <trkpt lat="47.0193" lon="8.65583">
        <ele>525</ele>
        <time>2021-08-05T08:25:30.369Z</time>
      </trkpt>
      <trkpt lat="47.0193" lon="8.65582">
        <ele>525</ele>
        <time>2021-08-05T08:25:31.369Z</time>
      </trkpt>
      <trkpt lat="47.01929" lon="8.65582">
        <ele>525</ele>
        <time>2021-08-05T08:25:32.369Z</time>
      </trkpt>
      <trkpt lat="47.01929" lon="8.65581">
        <ele>526</ele>
        <time>2021-08-05T08:25:33.369Z</time>
      </trkpt>
      <trkpt lat="47.01928" lon="8.6558">
        <ele>526</ele>
        <time>2021-08-05T08:25:34.368Z</time>
      </trkpt>
      <trkpt lat="47.01927" lon="8.65579">
        <ele>526</ele>
        <time>2021-08-05T08:25:35.369Z</time>
      </trkpt>
      <trkpt lat="47.01926" lon="8.65578">
        <ele>526</ele>
        <time>2021-08-05T08:25:36.368Z</time>
      </trkpt>
      <trkpt lat="47.01925" lon="8.65577">
        <ele>526</ele>
        <time>2021-08-05T08:25:37.369Z</time>
      </trkpt>
      <trkpt lat="47.01924" lon="8.65576">
        <ele>526</ele>
        <time>2021-08-05T08:25:38.369Z</time>
      </trkpt>
      <trkpt lat="47.01923" lon="8.65575">
        <ele>526</ele>
        <time>2021-08-05T08:25:39.369Z</time>
      </trkpt>
      <trkpt lat="47.01922" lon="8.65574">
        <ele>526</ele>
        <time>2021-08-05T08:25:40.368Z</time>
      </trkpt>
      <trkpt lat="47.01921" lon="8.65573">
        <ele>526</ele>
        <time>2021-08-05T08:25:41.369Z</time>
      </trkpt>
      <trkpt lat="47.0192" lon="8.65572">
        <ele>526</ele>
        <time>2021-08-05T08:25:42.369Z</time>
      </trkpt>
      <trkpt lat="47.01919" lon="8.65571">
        <ele>526</ele>
        <time>2021-08-05T08:25:43.369Z</time>
      </trkpt>
      <trkpt lat="47.01918" lon="8.6557">
        <ele>526</ele>
        <time>2021-08-05T08:25:44.369Z</time>
      </trkpt>
      <trkpt lat="47.01917" lon="8.6557">
        <ele>526</ele>
        <time>2021-08-05T08:25:45.368Z</time>
      </trkpt>
      <trkpt lat="47.01916" lon="8.65569">
        <ele>526</ele>
        <time>2021-08-05T08:25:46.369Z</time>
      </trkpt>
      <trkpt lat="47.01915" lon="8.65569">
        <ele>526</ele>
        <time>2021-08-05T08:25:47.368Z</time>
      </trkpt>
      <trkpt lat="47.01913" lon="8.65568">
        <ele>526</ele>
        <time>2021-08-05T08:25:48.369Z</time>
      </trkpt>
      <trkpt lat="47.01911" lon="8.65566">
        <ele>526</ele>
        <time>2021-08-05T08:25:49.369Z</time>
      </trkpt>
      <trkpt lat="47.0191" lon="8.65566">
        <ele>526</ele>
        <time>2021-08-05T08:25:50.369Z</time>
      </trkpt>
      <trkpt lat="47.01909" lon="8.65564">
        <ele>526</ele>
        <time>2021-08-05T08:25:51.369Z</time>
      </trkpt>
      <trkpt lat="47.01908" lon="8.65563">
        <ele>525</ele>
        <time>2021-08-05T08:25:52.369Z</time>
      </trkpt>
      <trkpt lat="47.01907" lon="8.65562">
        <ele>525</ele>
        <time>2021-08-05T08:25:53.368Z</time>
      </trkpt>
      <trkpt lat="47.01906" lon="8.65561">
        <ele>525</ele>
        <time>2021-08-05T08:25:54.368Z</time>
      </trkpt>
      <trkpt lat="47.01905" lon="8.65561">
        <ele>524</ele>
        <time>2021-08-05T08:25:55.369Z</time>
      </trkpt>
      <trkpt lat="47.01904" lon="8.65561">
        <ele>523</ele>
        <time>2021-08-05T08:25:56.369Z</time>
      </trkpt>
      <trkpt lat="47.01903" lon="8.6556">
        <ele>523</ele>
        <time>2021-08-05T08:25:57.369Z</time>
      </trkpt>
      <trkpt lat="47.01901" lon="8.65559">
        <ele>522</ele>
        <time>2021-08-05T08:25:58.369Z</time>
      </trkpt>
      <trkpt lat="47.019" lon="8.65558">
        <ele>521</ele>
        <time>2021-08-05T08:25:59.368Z</time>
      </trkpt>
      <trkpt lat="47.01899" lon="8.65558">
        <ele>520</ele>
        <time>2021-08-05T08:26:00.369Z</time>
      </trkpt>
      <trkpt lat="47.01898" lon="8.65558">
        <ele>520</ele>
        <time>2021-08-05T08:26:01.369Z</time>
      </trkpt>
      <trkpt lat="47.01897" lon="8.65557">
        <ele>519</ele>
        <time>2021-08-05T08:26:02.369Z</time>
      </trkpt>
      <trkpt lat="47.01896" lon="8.65557">
        <ele>518</ele>
        <time>2021-08-05T08:26:03.368Z</time>
      </trkpt>
      <trkpt lat="47.01895" lon="8.65557">
        <ele>518</ele>
        <time>2021-08-05T08:26:04.369Z</time>
      </trkpt>
      <trkpt lat="47.01894" lon="8.65556">
        <ele>517</ele>
        <time>2021-08-05T08:26:05.369Z</time>
      </trkpt>
      <trkpt lat="47.01893" lon="8.65555">
        <ele>517</ele>
        <time>2021-08-05T08:26:06.369Z</time>
      </trkpt>
      <trkpt lat="47.01892" lon="8.65555">
        <ele>516</ele>
        <time>2021-08-05T08:26:07.369Z</time>
      </trkpt>
      <trkpt lat="47.01891" lon="8.65554">
        <ele>516</ele>
        <time>2021-08-05T08:26:08.368Z</time>
      </trkpt>
      <trkpt lat="47.01891" lon="8.65553">
        <ele>516</ele>
        <time>2021-08-05T08:26:09.368Z</time>
      </trkpt>
      <trkpt lat="47.01889" lon="8.65553">
        <ele>515</ele>
        <time>2021-08-05T08:26:10.368Z</time>
      </trkpt>
      <trkpt lat="47.01888" lon="8.65552">
        <ele>515</ele>
        <time>2021-08-05T08:26:11.368Z</time>
      </trkpt>
      <trkpt lat="47.01887" lon="8.65552">
        <ele>515</ele>
        <time>2021-08-05T08:26:12.368Z</time>
      </trkpt>
      <trkpt lat="47.01886" lon="8.65551">
        <ele>515</ele>
        <time>2021-08-05T08:26:13.369Z</time>
      </trkpt>
      <trkpt lat="47.01885" lon="8.65551">
        <ele>514</ele>
        <time>2021-08-05T08:26:14.368Z</time>
      </trkpt>
      <trkpt lat="47.01884" lon="8.6555">
        <ele>514</ele>
        <time>2021-08-05T08:26:15.369Z</time>
      </trkpt>
      <trkpt lat="47.01884" lon="8.6555">
        <ele>514</ele>
        <time>2021-08-05T08:26:16.368Z</time>
      </trkpt>
      <trkpt lat="47.01883" lon="8.65549">
        <ele>514</ele>
        <time>2021-08-05T08:26:17.368Z</time>
      </trkpt>
      <trkpt lat="47.01882" lon="8.65547">
        <ele>513</ele>
        <time>2021-08-05T08:26:18.369Z</time>
      </trkpt>
      <trkpt lat="47.01881" lon="8.65546">
        <ele>513</ele>
        <time>2021-08-05T08:26:19.368Z</time>
      </trkpt>
      <trkpt lat="47.0188" lon="8.65545">
        <ele>513</ele>
        <time>2021-08-05T08:26:20.368Z</time>
      </trkpt>
      <trkpt lat="47.0188" lon="8.65545">
        <ele>512</ele>
        <time>2021-08-05T08:26:21.368Z</time>
      </trkpt>
      <trkpt lat="47.01876" lon="8.65542">
        <ele>510</ele>
        <time>2021-08-05T08:26:22.369Z</time>
      </trkpt>
      <trkpt lat="47.01875" lon="8.65541">
        <ele>510</ele>
        <time>2021-08-05T08:26:23.369Z</time>
      </trkpt>
      <trkpt lat="47.01875" lon="8.65541">
        <ele>509</ele>
        <time>2021-08-05T08:26:24.368Z</time>
      </trkpt>
      <trkpt lat="47.01874" lon="8.65541">
        <ele>509</ele>
        <time>2021-08-05T08:26:25.369Z</time>
      </trkpt>
      <trkpt lat="47.01874" lon="8.6554">
        <ele>508</ele>
        <time>2021-08-05T08:26:26.369Z</time>
      </trkpt>
      <trkpt lat="47.01874" lon="8.6554">
        <ele>507</ele>
        <time>2021-08-05T08:26:27.369Z</time>
      </trkpt>
      <trkpt lat="47.01873" lon="8.6554">
        <ele>506</ele>
        <time>2021-08-05T08:26:28.368Z</time>
      </trkpt>
      <trkpt lat="47.01872" lon="8.6554">
        <ele>505</ele>
        <time>2021-08-05T08:26:29.369Z</time>
      </trkpt>
      <trkpt lat="47.01871" lon="8.6554">
        <ele>504</ele>
        <time>2021-08-05T08:26:30.369Z</time>
      </trkpt>
      <trkpt lat="47.01871" lon="8.6554">
        <ele>503</ele>
        <time>2021-08-05T08:26:31.369Z</time>
      </trkpt>
      <trkpt lat="47.0187" lon="8.6554">
        <ele>503</ele>
        <time>2021-08-05T08:26:32.369Z</time>
      </trkpt>
      <trkpt lat="47.01869" lon="8.65539">
        <ele>502</ele>
        <time>2021-08-05T08:26:33.368Z</time>
      </trkpt>
      <trkpt lat="47.01868" lon="8.65538">
        <ele>501</ele>
        <time>2021-08-05T08:26:34.369Z</time>
      </trkpt>
      <trkpt lat="47.01867" lon="8.65537">
        <ele>501</ele>
        <time>2021-08-05T08:26:35.368Z</time>
      </trkpt>
      <trkpt lat="47.01866" lon="8.65535">
        <ele>500</ele>
        <time>2021-08-05T08:26:36.369Z</time>
      </trkpt>
      <trkpt lat="47.01865" lon="8.65534">
        <ele>500</ele>
        <time>2021-08-05T08:26:37.368Z</time>
      </trkpt>
      <trkpt lat="47.01864" lon="8.65533">
        <ele>500</ele>
        <time>2021-08-05T08:26:38.369Z</time>
      </trkpt>
      <trkpt lat="47.01863" lon="8.65532">
        <ele>500</ele>
        <time>2021-08-05T08:26:39.369Z</time>
      </trkpt>
      <trkpt lat="47.01862" lon="8.6553">
        <ele>500</ele>
        <time>2021-08-05T08:26:40.369Z</time>
      </trkpt>
      <trkpt lat="47.0186" lon="8.65529">
        <ele>500</ele>
        <time>2021-08-05T08:26:41.369Z</time>
      </trkpt>
      <trkpt lat="47.01859" lon="8.65528">
        <ele>501</ele>
        <time>2021-08-05T08:26:42.368Z</time>
      </trkpt>
      <trkpt lat="47.01858" lon="8.65527">
        <ele>501</ele>
        <time>2021-08-05T08:26:43.369Z</time>
      </trkpt>
      <trkpt lat="47.01857" lon="8.65526">
        <ele>502</ele>
        <time>2021-08-05T08:26:44.369Z</time>
      </trkpt>
      <trkpt lat="47.01856" lon="8.65526">
        <ele>502</ele>
        <time>2021-08-05T08:26:45.369Z</time>
      </trkpt>
      <trkpt lat="47.01855" lon="8.65525">
        <ele>501</ele>
        <time>2021-08-05T08:26:46.368Z</time>
      </trkpt>
      <trkpt lat="47.01854" lon="8.65524">
        <ele>501</ele>
        <time>2021-08-05T08:26:47.369Z</time>
      </trkpt>
      <trkpt lat="47.01853" lon="8.65523">
        <ele>501</ele>
        <time>2021-08-05T08:26:48.369Z</time>
      </trkpt>
      <trkpt lat="47.01852" lon="8.65522">
        <ele>501</ele>
        <time>2021-08-05T08:26:49.369Z</time>
      </trkpt>
      <trkpt lat="47.01851" lon="8.65522">
        <ele>501</ele>
        <time>2021-08-05T08:26:50.369Z</time>
      </trkpt>
      <trkpt lat="47.0185" lon="8.65521">
        <ele>500</ele>
        <time>2021-08-05T08:26:51.369Z</time>
      </trkpt>
      <trkpt lat="47.01849" lon="8.65521">
        <ele>500</ele>
        <time>2021-08-05T08:26:52.368Z</time>
      </trkpt>
      <trkpt lat="47.01848" lon="8.6552">
        <ele>500</ele>
        <time>2021-08-05T08:26:53.369Z</time>
      </trkpt>
      <trkpt lat="47.01848" lon="8.6552">
        <ele>500</ele>
        <time>2021-08-05T08:26:54.368Z</time>
      </trkpt>
      <trkpt lat="47.01847" lon="8.65519">
        <ele>501</ele>
        <time>2021-08-05T08:26:55.369Z</time>
      </trkpt>
      <trkpt lat="47.01846" lon="8.65518">
        <ele>501</ele>
        <time>2021-08-05T08:26:56.369Z</time>
      </trkpt>
      <trkpt lat="47.01846" lon="8.65518">
        <ele>501</ele>
        <time>2021-08-05T08:26:57.369Z</time>
      </trkpt>
      <trkpt lat="47.01845" lon="8.65516">
        <ele>502</ele>
        <time>2021-08-05T08:26:58.369Z</time>
      </trkpt>
      <trkpt lat="47.01844" lon="8.65515">
        <ele>502</ele>
        <time>2021-08-05T08:26:59.369Z</time>
      </trkpt>
      <trkpt lat="47.01844" lon="8.65515">
        <ele>502</ele>
        <time>2021-08-05T08:27:00.369Z</time>
      </trkpt>
      <trkpt lat="47.01843" lon="8.65514">
        <ele>503</ele>
        <time>2021-08-05T08:27:01.369Z</time>
      </trkpt>
      <trkpt lat="47.01843" lon="8.65513">
        <ele>503</ele>
        <time>2021-08-05T08:27:02.368Z</time>
      </trkpt>
      <trkpt lat="47.01842" lon="8.65511">
        <ele>504</ele>
        <time>2021-08-05T08:27:03.369Z</time>
      </trkpt>
      <trkpt lat="47.01842" lon="8.65509">
        <ele>504</ele>
        <time>2021-08-05T08:27:04.369Z</time>
      </trkpt>
      <trkpt lat="47.01842" lon="8.65508">
        <ele>504</ele>
        <time>2021-08-05T08:27:05.369Z</time>
      </trkpt>
      <trkpt lat="47.01841" lon="8.65507">
        <ele>505</ele>
        <time>2021-08-05T08:27:06.369Z</time>
      </trkpt>
      <trkpt lat="47.01841" lon="8.65507">
        <ele>505</ele>
        <time>2021-08-05T08:27:07.369Z</time>
      </trkpt>
      <trkpt lat="47.0184" lon="8.65508">
        <ele>505</ele>
        <time>2021-08-05T08:27:08.368Z</time>
      </trkpt>
      <trkpt lat="47.01841" lon="8.65509">
        <ele>506</ele>
        <time>2021-08-05T08:27:09.369Z</time>
      </trkpt>
      <trkpt lat="47.01841" lon="8.65509">
        <ele>506</ele>
        <time>2021-08-05T08:27:10.368Z</time>
      </trkpt>
      <trkpt lat="47.0184" lon="8.65509">
        <ele>506</ele>
        <time>2021-08-05T08:27:11.368Z</time>
      </trkpt>
      <trkpt lat="47.0184" lon="8.65508">
        <ele>506</ele>
        <time>2021-08-05T08:27:12.368Z</time>
      </trkpt>
      <trkpt lat="47.0184" lon="8.65508">
        <ele>507</ele>
        <time>2021-08-05T08:27:13.369Z</time>
      </trkpt>
      <trkpt lat="47.0184" lon="8.65507">
        <ele>507</ele>
        <time>2021-08-05T08:27:14.369Z</time>
      </trkpt>
      <trkpt lat="47.01839" lon="8.65506">
        <ele>507</ele>
        <time>2021-08-05T08:27:15.368Z</time>
      </trkpt>
      <trkpt lat="47.01839" lon="8.65506">
        <ele>507</ele>
        <time>2021-08-05T08:27:16.369Z</time>
      </trkpt>
      <trkpt lat="47.01839" lon="8.65506">
        <ele>508</ele>
        <time>2021-08-05T08:27:17.369Z</time>
      </trkpt>
      <trkpt lat="47.01838" lon="8.65506">
        <ele>508</ele>
        <time>2021-08-05T08:27:18.369Z</time>
      </trkpt>
      <trkpt lat="47.01838" lon="8.65506">
        <ele>509</ele>
        <time>2021-08-05T08:27:19.368Z</time>
      </trkpt>
      <trkpt lat="47.01837" lon="8.65506">
        <ele>509</ele>
        <time>2021-08-05T08:27:20.368Z</time>
      </trkpt>
      <trkpt lat="47.01837" lon="8.65505">
        <ele>509</ele>
        <time>2021-08-05T08:27:21.369Z</time>
      </trkpt>
      <trkpt lat="47.01836" lon="8.65504">
        <ele>510</ele>
        <time>2021-08-05T08:27:22.368Z</time>
      </trkpt>
      <trkpt lat="47.01835" lon="8.65503">
        <ele>510</ele>
        <time>2021-08-05T08:27:23.369Z</time>
      </trkpt>
      <trkpt lat="47.01834" lon="8.65502">
        <ele>510</ele>
        <time>2021-08-05T08:27:24.369Z</time>
      </trkpt>
      <trkpt lat="47.01833" lon="8.655">
        <ele>511</ele>
        <time>2021-08-05T08:27:25.369Z</time>
      </trkpt>
      <trkpt lat="47.01832" lon="8.65498">
        <ele>511</ele>
        <time>2021-08-05T08:27:26.368Z</time>
      </trkpt>
      <trkpt lat="47.01831" lon="8.65495">
        <ele>511</ele>
        <time>2021-08-05T08:27:27.368Z</time>
      </trkpt>
      <trkpt lat="47.01829" lon="8.65492">
        <ele>511</ele>
        <time>2021-08-05T08:27:28.369Z</time>
      </trkpt>
      <trkpt lat="47.01829" lon="8.65491">
        <ele>511</ele>
        <time>2021-08-05T08:27:29.369Z</time>
      </trkpt>
      <trkpt lat="47.01828" lon="8.65488">
        <ele>511</ele>
        <time>2021-08-05T08:27:30.369Z</time>
      </trkpt>
      <trkpt lat="47.01827" lon="8.65485">
        <ele>511</ele>
        <time>2021-08-05T08:27:31.368Z</time>
      </trkpt>
      <trkpt lat="47.01826" lon="8.65483">
        <ele>510</ele>
        <time>2021-08-05T08:27:32.368Z</time>
      </trkpt>
      <trkpt lat="47.01825" lon="8.65481">
        <ele>510</ele>
        <time>2021-08-05T08:27:33.369Z</time>
      </trkpt>
      <trkpt lat="47.01824" lon="8.6548">
        <ele>509</ele>
        <time>2021-08-05T08:27:34.369Z</time>
      </trkpt>
      <trkpt lat="47.01823" lon="8.65478">
        <ele>507</ele>
        <time>2021-08-05T08:27:35.369Z</time>
      </trkpt>
      <trkpt lat="47.01823" lon="8.65477">
        <ele>506</ele>
        <time>2021-08-05T08:27:36.368Z</time>
      </trkpt>
      <trkpt lat="47.01822" lon="8.65475">
        <ele>506</ele>
        <time>2021-08-05T08:27:37.368Z</time>
      </trkpt>
      <trkpt lat="47.01821" lon="8.65473">
        <ele>505</ele>
        <time>2021-08-05T08:27:38.369Z</time>
      </trkpt>
      <trkpt lat="47.0182" lon="8.65472">
        <ele>505</ele>
        <time>2021-08-05T08:27:39.369Z</time>
      </trkpt>
      <trkpt lat="47.01819" lon="8.6547">
        <ele>505</ele>
        <time>2021-08-05T08:27:40.369Z</time>
      </trkpt>
      <trkpt lat="47.01818" lon="8.65468">
        <ele>505</ele>
        <time>2021-08-05T08:27:41.369Z</time>
      </trkpt>
      <trkpt lat="47.01817" lon="8.65466">
        <ele>504</ele>
        <time>2021-08-05T08:27:42.368Z</time>
      </trkpt>
      <trkpt lat="47.01816" lon="8.65463">
        <ele>504</ele>
        <time>2021-08-05T08:27:43.369Z</time>
      </trkpt>
      <trkpt lat="47.01816" lon="8.65461">
        <ele>504</ele>
        <time>2021-08-05T08:27:44.369Z</time>
      </trkpt>
      <trkpt lat="47.01815" lon="8.65459">
        <ele>503</ele>
        <time>2021-08-05T08:27:45.369Z</time>
      </trkpt>
      <trkpt lat="47.01814" lon="8.65457">
        <ele>503</ele>
        <time>2021-08-05T08:27:46.368Z</time>
      </trkpt>
      <trkpt lat="47.01813" lon="8.65456">
        <ele>502</ele>
        <time>2021-08-05T08:27:47.369Z</time>
      </trkpt>
      <trkpt lat="47.01812" lon="8.65453">
        <ele>502</ele>
        <time>2021-08-05T08:27:48.369Z</time>
      </trkpt>
      <trkpt lat="47.0181" lon="8.65451">
        <ele>501</ele>
        <time>2021-08-05T08:27:49.369Z</time>
      </trkpt>
      <trkpt lat="47.0181" lon="8.65451">
        <ele>501</ele>
        <time>2021-08-05T08:27:50.369Z</time>
      </trkpt>
      <trkpt lat="47.0181" lon="8.65451">
        <ele>501</ele>
        <time>2021-08-05T08:27:51.369Z</time>
      </trkpt>
      <trkpt lat="47.01809" lon="8.6545">
        <ele>500</ele>
        <time>2021-08-05T08:27:52.369Z</time>
      </trkpt>
      <trkpt lat="47.01809" lon="8.65449">
        <ele>500</ele>
        <time>2021-08-05T08:27:53.369Z</time>
      </trkpt>
      <trkpt lat="47.01807" lon="8.65447">
        <ele>500</ele>
        <time>2021-08-05T08:27:54.369Z</time>
      </trkpt>
      <trkpt lat="47.01807" lon="8.65445">
        <ele>500</ele>
        <time>2021-08-05T08:27:55.369Z</time>
      </trkpt>
      <trkpt lat="47.01807" lon="8.65444">
        <ele>499</ele>
        <time>2021-08-05T08:27:56.368Z</time>
      </trkpt>
      <trkpt lat="47.01807" lon="8.65444">
        <ele>499</ele>
        <time>2021-08-05T08:27:57.368Z</time>
      </trkpt>
      <trkpt lat="47.01806" lon="8.65442">
        <ele>499</ele>
        <time>2021-08-05T08:27:58.368Z</time>
      </trkpt>
      <trkpt lat="47.01806" lon="8.65441">
        <ele>499</ele>
        <time>2021-08-05T08:27:59.369Z</time>
      </trkpt>
      <trkpt lat="47.01806" lon="8.6544">
        <ele>499</ele>
        <time>2021-08-05T08:28:00.369Z</time>
      </trkpt>
      <trkpt lat="47.01805" lon="8.65439">
        <ele>498</ele>
        <time>2021-08-05T08:28:01.368Z</time>
      </trkpt>
      <trkpt lat="47.01804" lon="8.65437">
        <ele>498</ele>
        <time>2021-08-05T08:28:02.369Z</time>
      </trkpt>
      <trkpt lat="47.01804" lon="8.65435">
        <ele>498</ele>
        <time>2021-08-05T08:28:03.369Z</time>
      </trkpt>
      <trkpt lat="47.01803" lon="8.65434">
        <ele>498</ele>
        <time>2021-08-05T08:28:04.368Z</time>
      </trkpt>
      <trkpt lat="47.01803" lon="8.65433">
        <ele>498</ele>
        <time>2021-08-05T08:28:05.368Z</time>
      </trkpt>
      <trkpt lat="47.01803" lon="8.65432">
        <ele>498</ele>
        <time>2021-08-05T08:28:06.368Z</time>
      </trkpt>
      <trkpt lat="47.01801" lon="8.6543">
        <ele>498</ele>
        <time>2021-08-05T08:28:07.369Z</time>
      </trkpt>
      <trkpt lat="47.018" lon="8.65429">
        <ele>498</ele>
        <time>2021-08-05T08:28:08.369Z</time>
      </trkpt>
      <trkpt lat="47.01799" lon="8.65425">
        <ele>498</ele>
        <time>2021-08-05T08:28:09.368Z</time>
      </trkpt>
      <trkpt lat="47.01798" lon="8.65424">
        <ele>497</ele>
        <time>2021-08-05T08:28:10.368Z</time>
      </trkpt>
      <trkpt lat="47.01798" lon="8.65422">
        <ele>498</ele>
        <time>2021-08-05T08:28:11.369Z</time>
      </trkpt>
      <trkpt lat="47.01797" lon="8.6542">
        <ele>498</ele>
        <time>2021-08-05T08:28:12.369Z</time>
      </trkpt>
      <trkpt lat="47.01796" lon="8.65418">
        <ele>498</ele>
        <time>2021-08-05T08:28:13.369Z</time>
      </trkpt>
      <trkpt lat="47.01796" lon="8.65417">
        <ele>498</ele>
        <time>2021-08-05T08:28:14.368Z</time>
      </trkpt>
      <trkpt lat="47.01796" lon="8.65416">
        <ele>497</ele>
        <time>2021-08-05T08:28:15.369Z</time>
      </trkpt>
      <trkpt lat="47.01796" lon="8.65416">
        <ele>497</ele>
        <time>2021-08-05T08:28:16.369Z</time>
      </trkpt>
      <trkpt lat="47.01796" lon="8.65415">
        <ele>496</ele>
        <time>2021-08-05T08:28:17.368Z</time>
      </trkpt>
      <trkpt lat="47.01796" lon="8.65414">
        <ele>496</ele>
        <time>2021-08-05T08:28:18.369Z</time>
      </trkpt>
      <trkpt lat="47.01796" lon="8.65413">
        <ele>495</ele>
        <time>2021-08-05T08:28:19.369Z</time>
      </trkpt>
      <trkpt lat="47.01796" lon="8.65413">
        <ele>495</ele>
        <time>2021-08-05T08:28:20.369Z</time>
      </trkpt>
      <trkpt lat="47.01797" lon="8.65412">
        <ele>495</ele>
        <time>2021-08-05T08:28:21.369Z</time>
      </trkpt>
      <trkpt lat="47.01797" lon="8.65411">
        <ele>495</ele>
        <time>2021-08-05T08:28:22.369Z</time>
      </trkpt>
      <trkpt lat="47.01798" lon="8.6541">
        <ele>495</ele>
        <time>2021-08-05T08:28:23.369Z</time>
      </trkpt>
      <trkpt lat="47.01797" lon="8.65409">
        <ele>495</ele>
        <time>2021-08-05T08:28:24.368Z</time>
      </trkpt>
      <trkpt lat="47.01798" lon="8.65411">
        <ele>495</ele>
        <time>2021-08-05T08:28:25.369Z</time>
      </trkpt>
      <trkpt lat="47.01798" lon="8.65411">
        <ele>495</ele>
        <time>2021-08-05T08:28:26.369Z</time>
      </trkpt>
      <trkpt lat="47.01796" lon="8.6541">
        <ele>488</ele>
        <time>2021-08-05T08:28:27.369Z</time>
      </trkpt>
      <trkpt lat="47.01796" lon="8.6541">
        <ele>487</ele>
        <time>2021-08-05T08:28:28.370Z</time>
      </trkpt>
      <trkpt lat="47.01794" lon="8.65409">
        <ele>487</ele>
        <time>2021-08-05T08:28:29.370Z</time>
      </trkpt>
      <trkpt lat="47.01795" lon="8.65409">
        <ele>488</ele>
        <time>2021-08-05T08:28:30.370Z</time>
      </trkpt>
      <trkpt lat="47.01795" lon="8.65407">
        <ele>486</ele>
        <time>2021-08-05T08:28:31.370Z</time>
      </trkpt>
      <trkpt lat="47.01794" lon="8.65405">
        <ele>486</ele>
        <time>2021-08-05T08:28:32.370Z</time>
      </trkpt>
      <trkpt lat="47.01793" lon="8.65404">
        <ele>485</ele>
        <time>2021-08-05T08:28:33.369Z</time>
      </trkpt>
      <trkpt lat="47.01792" lon="8.65403">
        <ele>484</ele>
        <time>2021-08-05T08:28:34.371Z</time>
      </trkpt>
      <trkpt lat="47.0179" lon="8.65403">
        <ele>484</ele>
        <time>2021-08-05T08:28:35.370Z</time>
      </trkpt>
      <trkpt lat="47.0179" lon="8.65404">
        <ele>484</ele>
        <time>2021-08-05T08:28:36.370Z</time>
      </trkpt>
      <trkpt lat="47.01789" lon="8.65404">
        <ele>484</ele>
        <time>2021-08-05T08:28:37.371Z</time>
      </trkpt>
      <trkpt lat="47.01787" lon="8.65404">
        <ele>484</ele>
        <time>2021-08-05T08:28:38.371Z</time>
      </trkpt>
      <trkpt lat="47.01786" lon="8.65405">
        <ele>485</ele>
        <time>2021-08-05T08:28:39.371Z</time>
      </trkpt>
      <trkpt lat="47.01785" lon="8.65405">
        <ele>485</ele>
        <time>2021-08-05T08:28:40.370Z</time>
      </trkpt>
      <trkpt lat="47.01784" lon="8.65405">
        <ele>486</ele>
        <time>2021-08-05T08:28:41.370Z</time>
      </trkpt>
      <trkpt lat="47.01783" lon="8.65406">
        <ele>486</ele>
        <time>2021-08-05T08:28:42.371Z</time>
      </trkpt>
      <trkpt lat="47.01782" lon="8.65406">
        <ele>486</ele>
        <time>2021-08-05T08:28:43.370Z</time>
      </trkpt>
      <trkpt lat="47.01781" lon="8.65408">
        <ele>487</ele>
        <time>2021-08-05T08:28:44.371Z</time>
      </trkpt>
      <trkpt lat="47.0178" lon="8.65409">
        <ele>487</ele>
        <time>2021-08-05T08:28:45.370Z</time>
      </trkpt>
      <trkpt lat="47.0178" lon="8.6541">
        <ele>487</ele>
        <time>2021-08-05T08:28:46.370Z</time>
      </trkpt>
      <trkpt lat="47.01779" lon="8.65411">
        <ele>487</ele>
        <time>2021-08-05T08:28:47.370Z</time>
      </trkpt>
      <trkpt lat="47.01778" lon="8.65412">
        <ele>488</ele>
        <time>2021-08-05T08:28:48.371Z</time>
      </trkpt>
      <trkpt lat="47.01777" lon="8.65413">
        <ele>488</ele>
        <time>2021-08-05T08:28:49.371Z</time>
      </trkpt>
      <trkpt lat="47.01776" lon="8.65414">
        <ele>489</ele>
        <time>2021-08-05T08:28:50.371Z</time>
      </trkpt>
      <trkpt lat="47.01776" lon="8.65415">
        <ele>489</ele>
        <time>2021-08-05T08:28:51.371Z</time>
      </trkpt>
      <trkpt lat="47.01775" lon="8.65416">
        <ele>489</ele>
        <time>2021-08-05T08:28:52.371Z</time>
      </trkpt>
      <trkpt lat="47.01774" lon="8.65417">
        <ele>489</ele>
        <time>2021-08-05T08:28:53.371Z</time>
      </trkpt>
      <trkpt lat="47.01774" lon="8.65417">
        <ele>489</ele>
        <time>2021-08-05T08:28:54.370Z</time>
      </trkpt>
      <trkpt lat="47.01773" lon="8.65417">
        <ele>489</ele>
        <time>2021-08-05T08:28:55.371Z</time>
      </trkpt>
      <trkpt lat="47.01772" lon="8.65418">
        <ele>489</ele>
        <time>2021-08-05T08:28:56.371Z</time>
      </trkpt>
      <trkpt lat="47.01772" lon="8.65418">
        <ele>490</ele>
        <time>2021-08-05T08:28:57.370Z</time>
      </trkpt>
      <trkpt lat="47.01771" lon="8.65419">
        <ele>490</ele>
        <time>2021-08-05T08:28:58.371Z</time>
      </trkpt>
      <trkpt lat="47.0177" lon="8.65418">
        <ele>489</ele>
        <time>2021-08-05T08:28:59.371Z</time>
      </trkpt>
      <trkpt lat="47.01769" lon="8.65418">
        <ele>490</ele>
        <time>2021-08-05T08:29:00.371Z</time>
      </trkpt>
      <trkpt lat="47.01768" lon="8.65417">
        <ele>490</ele>
        <time>2021-08-05T08:29:01.371Z</time>
      </trkpt>
      <trkpt lat="47.01767" lon="8.65417">
        <ele>490</ele>
        <time>2021-08-05T08:29:02.371Z</time>
      </trkpt>
      <trkpt lat="47.01767" lon="8.65416">
        <ele>490</ele>
        <time>2021-08-05T08:29:03.370Z</time>
      </trkpt>
      <trkpt lat="47.01766" lon="8.65415">
        <ele>489</ele>
        <time>2021-08-05T08:29:04.371Z</time>
      </trkpt>
      <trkpt lat="47.01765" lon="8.65413">
        <ele>489</ele>
        <time>2021-08-05T08:29:05.370Z</time>
      </trkpt>
      <trkpt lat="47.01764" lon="8.65413">
        <ele>489</ele>
        <time>2021-08-05T08:29:06.371Z</time>
      </trkpt>
      <trkpt lat="47.01763" lon="8.65412">
        <ele>488</ele>
        <time>2021-08-05T08:29:07.371Z</time>
      </trkpt>
      <trkpt lat="47.01762" lon="8.65411">
        <ele>488</ele>
        <time>2021-08-05T08:29:08.371Z</time>
      </trkpt>
      <trkpt lat="47.01762" lon="8.6541">
        <ele>488</ele>
        <time>2021-08-05T08:29:09.370Z</time>
      </trkpt>
      <trkpt lat="47.01761" lon="8.6541">
        <ele>487</ele>
        <time>2021-08-05T08:29:10.370Z</time>
      </trkpt>
      <trkpt lat="47.0176" lon="8.65409">
        <ele>487</ele>
        <time>2021-08-05T08:29:11.371Z</time>
      </trkpt>
      <trkpt lat="47.01759" lon="8.65408">
        <ele>486</ele>
        <time>2021-08-05T08:29:12.370Z</time>
      </trkpt>
      <trkpt lat="47.01758" lon="8.65407">
        <ele>486</ele>
        <time>2021-08-05T08:29:13.371Z</time>
      </trkpt>
      <trkpt lat="47.01758" lon="8.65406">
        <ele>486</ele>
        <time>2021-08-05T08:29:14.370Z</time>
      </trkpt>
      <trkpt lat="47.01757" lon="8.65405">
        <ele>486</ele>
        <time>2021-08-05T08:29:15.370Z</time>
      </trkpt>
      <trkpt lat="47.01756" lon="8.65405">
        <ele>486</ele>
        <time>2021-08-05T08:29:16.371Z</time>
      </trkpt>
      <trkpt lat="47.01755" lon="8.65404">
        <ele>485</ele>
        <time>2021-08-05T08:29:17.370Z</time>
      </trkpt>
      <trkpt lat="47.01754" lon="8.65403">
        <ele>485</ele>
        <time>2021-08-05T08:29:18.371Z</time>
      </trkpt>
      <trkpt lat="47.01753" lon="8.65404">
        <ele>485</ele>
        <time>2021-08-05T08:29:19.371Z</time>
      </trkpt>
      <trkpt lat="47.01752" lon="8.65405">
        <ele>484</ele>
        <time>2021-08-05T08:29:20.370Z</time>
      </trkpt>
      <trkpt lat="47.01752" lon="8.65405">
        <ele>484</ele>
        <time>2021-08-05T08:29:21.371Z</time>
      </trkpt>
      <trkpt lat="47.01751" lon="8.65405">
        <ele>483</ele>
        <time>2021-08-05T08:29:22.370Z</time>
      </trkpt>
      <trkpt lat="47.0175" lon="8.65405">
        <ele>483</ele>
        <time>2021-08-05T08:29:23.370Z</time>
      </trkpt>
      <trkpt lat="47.01749" lon="8.65405">
        <ele>483</ele>
        <time>2021-08-05T08:29:24.371Z</time>
      </trkpt>
      <trkpt lat="47.01749" lon="8.65405">
        <ele>483</ele>
        <time>2021-08-05T08:29:25.371Z</time>
      </trkpt>
      <trkpt lat="47.01749" lon="8.65404">
        <ele>482</ele>
        <time>2021-08-05T08:29:26.370Z</time>
      </trkpt>
      <trkpt lat="47.01748" lon="8.65403">
        <ele>483</ele>
        <time>2021-08-05T08:29:27.371Z</time>
      </trkpt>
      <trkpt lat="47.01747" lon="8.65402">
        <ele>482</ele>
        <time>2021-08-05T08:29:28.370Z</time>
      </trkpt>
      <trkpt lat="47.01747" lon="8.65401">
        <ele>482</ele>
        <time>2021-08-05T08:29:29.371Z</time>
      </trkpt>
      <trkpt lat="47.01746" lon="8.65401">
        <ele>482</ele>
        <time>2021-08-05T08:29:30.370Z</time>
      </trkpt>
      <trkpt lat="47.01745" lon="8.654">
        <ele>482</ele>
        <time>2021-08-05T08:29:31.370Z</time>
      </trkpt>
      <trkpt lat="47.01744" lon="8.654">
        <ele>482</ele>
        <time>2021-08-05T08:29:32.370Z</time>
      </trkpt>
      <trkpt lat="47.01743" lon="8.65399">
        <ele>482</ele>
        <time>2021-08-05T08:29:33.371Z</time>
      </trkpt>
      <trkpt lat="47.01742" lon="8.65399">
        <ele>482</ele>
        <time>2021-08-05T08:29:34.371Z</time>
      </trkpt>
      <trkpt lat="47.01741" lon="8.65398">
        <ele>482</ele>
        <time>2021-08-05T08:29:35.371Z</time>
      </trkpt>
      <trkpt lat="47.0174" lon="8.65397">
        <ele>482</ele>
        <time>2021-08-05T08:29:36.371Z</time>
      </trkpt>
      <trkpt lat="47.01739" lon="8.65397">
        <ele>482</ele>
        <time>2021-08-05T08:29:37.371Z</time>
      </trkpt>
      <trkpt lat="47.01738" lon="8.65396">
        <ele>483</ele>
        <time>2021-08-05T08:29:38.371Z</time>
      </trkpt>
      <trkpt lat="47.01737" lon="8.65396">
        <ele>484</ele>
        <time>2021-08-05T08:29:39.371Z</time>
      </trkpt>
      <trkpt lat="47.01736" lon="8.65396">
        <ele>484</ele>
        <time>2021-08-05T08:29:40.371Z</time>
      </trkpt>
      <trkpt lat="47.01735" lon="8.65395">
        <ele>485</ele>
        <time>2021-08-05T08:29:41.371Z</time>
      </trkpt>
      <trkpt lat="47.01733" lon="8.65395">
        <ele>486</ele>
        <time>2021-08-05T08:29:42.370Z</time>
      </trkpt>
      <trkpt lat="47.01732" lon="8.65394">
        <ele>487</ele>
        <time>2021-08-05T08:29:43.371Z</time>
      </trkpt>
      <trkpt lat="47.01731" lon="8.65393">
        <ele>487</ele>
        <time>2021-08-05T08:29:44.371Z</time>
      </trkpt>
      <trkpt lat="47.01729" lon="8.65392">
        <ele>487</ele>
        <time>2021-08-05T08:29:45.371Z</time>
      </trkpt>
      <trkpt lat="47.01728" lon="8.65391">
        <ele>488</ele>
        <time>2021-08-05T08:29:46.370Z</time>
      </trkpt>
      <trkpt lat="47.01727" lon="8.65391">
        <ele>489</ele>
        <time>2021-08-05T08:29:47.370Z</time>
      </trkpt>
      <trkpt lat="47.01726" lon="8.6539">
        <ele>489</ele>
        <time>2021-08-05T08:29:48.371Z</time>
      </trkpt>
      <trkpt lat="47.01725" lon="8.6539">
        <ele>489</ele>
        <time>2021-08-05T08:29:49.371Z</time>
      </trkpt>
      <trkpt lat="47.01724" lon="8.6539">
        <ele>490</ele>
        <time>2021-08-05T08:29:50.371Z</time>
      </trkpt>
      <trkpt lat="47.01723" lon="8.65389">
        <ele>489</ele>
        <time>2021-08-05T08:29:51.371Z</time>
      </trkpt>
      <trkpt lat="47.01722" lon="8.65388">
        <ele>489</ele>
        <time>2021-08-05T08:29:52.371Z</time>
      </trkpt>
      <trkpt lat="47.01722" lon="8.65388">
        <ele>489</ele>
        <time>2021-08-05T08:29:53.370Z</time>
      </trkpt>
      <trkpt lat="47.0172" lon="8.65388">
        <ele>489</ele>
        <time>2021-08-05T08:29:54.371Z</time>
      </trkpt>
      <trkpt lat="47.01719" lon="8.65387">
        <ele>489</ele>
        <time>2021-08-05T08:29:55.371Z</time>
      </trkpt>
      <trkpt lat="47.01718" lon="8.65387">
        <ele>489</ele>
        <time>2021-08-05T08:29:56.370Z</time>
      </trkpt>
      <trkpt lat="47.01717" lon="8.65388">
        <ele>488</ele>
        <time>2021-08-05T08:29:57.371Z</time>
      </trkpt>
      <trkpt lat="47.01716" lon="8.65388">
        <ele>488</ele>
        <time>2021-08-05T08:29:58.371Z</time>
      </trkpt>
      <trkpt lat="47.01716" lon="8.65388">
        <ele>488</ele>
        <time>2021-08-05T08:29:59.370Z</time>
      </trkpt>
      <trkpt lat="47.01714" lon="8.65387">
        <ele>488</ele>
        <time>2021-08-05T08:30:00.371Z</time>
      </trkpt>
      <trkpt lat="47.01713" lon="8.65386">
        <ele>488</ele>
        <time>2021-08-05T08:30:01.371Z</time>
      </trkpt>
      <trkpt lat="47.01712" lon="8.65386">
        <ele>488</ele>
        <time>2021-08-05T08:30:02.370Z</time>
      </trkpt>
      <trkpt lat="47.0171" lon="8.65384">
        <ele>488</ele>
        <time>2021-08-05T08:30:03.371Z</time>
      </trkpt>
      <trkpt lat="47.01709" lon="8.65384">
        <ele>487</ele>
        <time>2021-08-05T08:30:04.371Z</time>
      </trkpt>
      <trkpt lat="47.01708" lon="8.65384">
        <ele>487</ele>
        <time>2021-08-05T08:30:05.371Z</time>
      </trkpt>
      <trkpt lat="47.01707" lon="8.65383">
        <ele>487</ele>
        <time>2021-08-05T08:30:06.371Z</time>
      </trkpt>
      <trkpt lat="47.01706" lon="8.65383">
        <ele>486</ele>
        <time>2021-08-05T08:30:07.371Z</time>
      </trkpt>
      <trkpt lat="47.01705" lon="8.65382">
        <ele>486</ele>
        <time>2021-08-05T08:30:08.370Z</time>
      </trkpt>
      <trkpt lat="47.01703" lon="8.65381">
        <ele>485</ele>
        <time>2021-08-05T08:30:09.371Z</time>
      </trkpt>
      <trkpt lat="47.01702" lon="8.6538">
        <ele>485</ele>
        <time>2021-08-05T08:30:10.371Z</time>
      </trkpt>
      <trkpt lat="47.01701" lon="8.65378">
        <ele>485</ele>
        <time>2021-08-05T08:30:11.371Z</time>
      </trkpt>
      <trkpt lat="47.017" lon="8.65377">
        <ele>485</ele>
        <time>2021-08-05T08:30:12.371Z</time>
      </trkpt>
      <trkpt lat="47.01699" lon="8.65376">
        <ele>485</ele>
        <time>2021-08-05T08:30:13.371Z</time>
      </trkpt>
      <trkpt lat="47.01698" lon="8.65375">
        <ele>485</ele>
        <time>2021-08-05T08:30:14.370Z</time>
      </trkpt>
      <trkpt lat="47.01697" lon="8.65375">
        <ele>486</ele>
        <time>2021-08-05T08:30:15.371Z</time>
      </trkpt>
      <trkpt lat="47.01695" lon="8.65374">
        <ele>486</ele>
        <time>2021-08-05T08:30:16.371Z</time>
      </trkpt>
      <trkpt lat="47.01694" lon="8.65373">
        <ele>486</ele>
        <time>2021-08-05T08:30:17.370Z</time>
      </trkpt>
      <trkpt lat="47.01693" lon="8.65373">
        <ele>486</ele>
        <time>2021-08-05T08:30:18.371Z</time>
      </trkpt>
      <trkpt lat="47.01693" lon="8.65372">
        <ele>486</ele>
        <time>2021-08-05T08:30:19.371Z</time>
      </trkpt>
      <trkpt lat="47.01692" lon="8.65371">
        <ele>486</ele>
        <time>2021-08-05T08:30:20.370Z</time>
      </trkpt>
      <trkpt lat="47.01691" lon="8.65371">
        <ele>486</ele>
        <time>2021-08-05T08:30:21.371Z</time>
      </trkpt>
      <trkpt lat="47.0169" lon="8.6537">
        <ele>485</ele>
        <time>2021-08-05T08:30:22.371Z</time>
      </trkpt>
      <trkpt lat="47.01689" lon="8.6537">
        <ele>485</ele>
        <time>2021-08-05T08:30:23.371Z</time>
      </trkpt>
      <trkpt lat="47.01688" lon="8.6537">
        <ele>485</ele>
        <time>2021-08-05T08:30:24.371Z</time>
      </trkpt>
      <trkpt lat="47.01686" lon="8.65369">
        <ele>484</ele>
        <time>2021-08-05T08:30:25.371Z</time>
      </trkpt>
      <trkpt lat="47.01685" lon="8.65368">
        <ele>484</ele>
        <time>2021-08-05T08:30:26.370Z</time>
      </trkpt>
      <trkpt lat="47.01683" lon="8.65367">
        <ele>484</ele>
        <time>2021-08-05T08:30:27.371Z</time>
      </trkpt>
      <trkpt lat="47.01681" lon="8.65366">
        <ele>484</ele>
        <time>2021-08-05T08:30:28.371Z</time>
      </trkpt>
      <trkpt lat="47.0168" lon="8.65366">
        <ele>484</ele>
        <time>2021-08-05T08:30:29.371Z</time>
      </trkpt>
      <trkpt lat="47.01679" lon="8.65365">
        <ele>485</ele>
        <time>2021-08-05T08:30:30.371Z</time>
      </trkpt>
      <trkpt lat="47.01677" lon="8.65364">
        <ele>485</ele>
        <time>2021-08-05T08:30:31.370Z</time>
      </trkpt>
      <trkpt lat="47.01677" lon="8.65364">
        <ele>485</ele>
        <time>2021-08-05T08:30:32.371Z</time>
      </trkpt>
      <trkpt lat="47.01677" lon="8.65363">
        <ele>486</ele>
        <time>2021-08-05T08:30:33.371Z</time>
      </trkpt>
      <trkpt lat="47.01676" lon="8.65362">
        <ele>486</ele>
        <time>2021-08-05T08:30:34.370Z</time>
      </trkpt>
      <trkpt lat="47.01675" lon="8.65362">
        <ele>486</ele>
        <time>2021-08-05T08:30:35.371Z</time>
      </trkpt>
      <trkpt lat="47.01674" lon="8.65362">
        <ele>486</ele>
        <time>2021-08-05T08:30:36.371Z</time>
      </trkpt>
      <trkpt lat="47.01673" lon="8.65362">
        <ele>486</ele>
        <time>2021-08-05T08:30:37.371Z</time>
      </trkpt>
      <trkpt lat="47.01672" lon="8.65362">
        <ele>486</ele>
        <time>2021-08-05T08:30:38.370Z</time>
      </trkpt>
      <trkpt lat="47.01671" lon="8.65362">
        <ele>486</ele>
        <time>2021-08-05T08:30:39.371Z</time>
      </trkpt>
      <trkpt lat="47.0167" lon="8.65361">
        <ele>485</ele>
        <time>2021-08-05T08:30:40.371Z</time>
      </trkpt>
      <trkpt lat="47.0167" lon="8.65362">
        <ele>485</ele>
        <time>2021-08-05T08:30:41.371Z</time>
      </trkpt>
      <trkpt lat="47.01669" lon="8.65362">
        <ele>485</ele>
        <time>2021-08-05T08:30:42.370Z</time>
      </trkpt>
      <trkpt lat="47.01668" lon="8.65363">
        <ele>485</ele>
        <time>2021-08-05T08:30:43.371Z</time>
      </trkpt>
      <trkpt lat="47.01667" lon="8.65363">
        <ele>485</ele>
        <time>2021-08-05T08:30:44.370Z</time>
      </trkpt>
      <trkpt lat="47.01667" lon="8.65364">
        <ele>485</ele>
        <time>2021-08-05T08:30:45.371Z</time>
      </trkpt>
      <trkpt lat="47.01665" lon="8.65365">
        <ele>485</ele>
        <time>2021-08-05T08:30:46.371Z</time>
      </trkpt>
      <trkpt lat="47.01665" lon="8.65366">
        <ele>484</ele>
        <time>2021-08-05T08:30:47.371Z</time>
      </trkpt>
      <trkpt lat="47.01664" lon="8.65366">
        <ele>484</ele>
        <time>2021-08-05T08:30:48.370Z</time>
      </trkpt>
    </trkseg>
  </trk>
</gpx>